sensor_id;sensor_type;location;lat;lon;timestamp;P1;durP1;ratioP1;P2;durP2;ratioP2
22543;SDS011;11438;52.044;8.716;2023-07-24T00:01:31;2.85;;;1.10;;
22543;SDS011;11438;52.044;8.716;2023-07-24T00:03:56;2.90;;;1.48;;
22543;SDS011;11438;52.044;8.716;2023-07-24T00:06:23;1.20;;;1.10;;
22543;SDS011;11438;52.044;8.716;2023-07-24T00:08:48;1.63;;;1.02;;
22543;SDS011;11438;52.044;8.716;2023-07-24T00:11:14;2.33;;;1.30;;
22543;SDS011;11438;52.044;8.716;2023-07-24T00:13:39;2.75;;;1.33;;
22543;SDS011;11438;52.044;8.716;2023-07-24T00:16:08;1.70;;;1.20;;
22543;SDS011;11438;52.044;8.716;2023-07-24T00:18:34;3.35;;;1.40;;
22543;SDS011;11438;52.044;8.716;2023-07-24T00:21:00;2.25;;;1.42;;
22543;SDS011;11438;52.044;8.716;2023-07-24T00:23:25;2.05;;;1.23;;
22543;SDS011;11438;52.044;8.716;2023-07-24T00:25:51;1.98;;;1.35;;
22543;SDS011;11438;52.044;8.716;2023-07-24T00:28:16;2.08;;;1.35;;
22543;SDS011;11438;52.044;8.716;2023-07-24T00:30:42;2.78;;;1.40;;
22543;SDS011;11438;52.044;8.716;2023-07-24T00:33:08;1.88;;;1.35;;
22543;SDS011;11438;52.044;8.716;2023-07-24T00:35:33;2.33;;;1.40;;
22543;SDS011;11438;52.044;8.716;2023-07-24T00:37:59;2.03;;;1.33;;
22543;SDS011;11438;52.044;8.716;2023-07-24T00:40:24;2.58;;;1.40;;
22543;SDS011;11438;52.044;8.716;2023-07-24T00:42:50;1.35;;;1.13;;
22543;SDS011;11438;52.044;8.716;2023-07-24T00:45:15;1.80;;;1.30;;
22543;SDS011;11438;52.044;8.716;2023-07-24T00:47:42;2.08;;;1.40;;
22543;SDS011;11438;52.044;8.716;2023-07-24T00:50:08;2.75;;;1.40;;
22543;SDS011;11438;52.044;8.716;2023-07-24T00:52:35;1.45;;;1.20;;
22543;SDS011;11438;52.044;8.716;2023-07-24T00:55:01;1.40;;;1.20;;
22543;SDS011;11438;52.044;8.716;2023-07-24T00:57:27;1.90;;;1.30;;
22543;SDS011;11438;52.044;8.716;2023-07-24T00:59:53;1.50;;;1.25;;
22543;SDS011;11438;52.044;8.716;2023-07-24T01:02:19;1.45;;;1.20;;
22543;SDS011;11438;52.044;8.716;2023-07-24T01:04:45;2.58;;;1.17;;
22543;SDS011;11438;52.044;8.716;2023-07-24T01:07:11;1.90;;;1.30;;
22543;SDS011;11438;52.044;8.716;2023-07-24T01:09:37;2.33;;;1.10;;
22543;SDS011;11438;52.044;8.716;2023-07-24T01:12:04;1.38;;;1.15;;
22543;SDS011;11438;52.044;8.716;2023-07-24T01:14:42;2.17;;;1.35;;
22543;SDS011;11438;52.044;8.716;2023-07-24T01:17:15;2.97;;;1.48;;
22543;SDS011;11438;52.044;8.716;2023-07-24T01:19:47;2.63;;;1.50;;
22543;SDS011;11438;52.044;8.716;2023-07-24T01:27:57;3.03;;;1.30;;
22543;SDS011;11438;52.044;8.716;2023-07-24T01:30:22;2.20;;;1.50;;
22543;SDS011;11438;52.044;8.716;2023-07-24T01:32:48;1.90;;;1.13;;
22543;SDS011;11438;52.044;8.716;2023-07-24T01:35:14;2.03;;;1.30;;
22543;SDS011;11438;52.044;8.716;2023-07-24T01:37:40;2.03;;;1.13;;
22543;SDS011;11438;52.044;8.716;2023-07-24T01:40:07;2.40;;;1.05;;
22543;SDS011;11438;52.044;8.716;2023-07-24T01:42:34;3.28;;;1.50;;
22543;SDS011;11438;52.044;8.716;2023-07-24T01:45:02;2.15;;;1.20;;
22543;SDS011;11438;52.044;8.716;2023-07-24T01:47:28;1.75;;;1.25;;
22543;SDS011;11438;52.044;8.716;2023-07-24T01:49:55;2.63;;;1.23;;
22543;SDS011;11438;52.044;8.716;2023-07-24T01:52:20;2.17;;;1.00;;
22543;SDS011;11438;52.044;8.716;2023-07-24T01:54:46;3.13;;;1.40;;
22543;SDS011;11438;52.044;8.716;2023-07-24T01:57:12;6.47;;;1.40;;
22543;SDS011;11438;52.044;8.716;2023-07-24T01:59:37;2.42;;;1.50;;
22543;SDS011;11438;52.044;8.716;2023-07-24T02:02:03;2.60;;;1.20;;
22543;SDS011;11438;52.044;8.716;2023-07-24T02:04:29;4.18;;;1.40;;
22543;SDS011;11438;52.044;8.716;2023-07-24T02:06:54;3.20;;;1.55;;
22543;SDS011;11438;52.044;8.716;2023-07-24T02:09:20;2.83;;;1.30;;
22543;SDS011;11438;52.044;8.716;2023-07-24T02:11:45;1.85;;;1.60;;
22543;SDS011;11438;52.044;8.716;2023-07-24T02:14:11;4.18;;;1.60;;
22543;SDS011;11438;52.044;8.716;2023-07-24T02:16:38;2.38;;;1.42;;
22543;SDS011;11438;52.044;8.716;2023-07-24T02:19:03;1.58;;;1.27;;
22543;SDS011;11438;52.044;8.716;2023-07-24T02:21:29;2.30;;;1.33;;
22543;SDS011;11438;52.044;8.716;2023-07-24T02:23:55;2.20;;;1.30;;
22543;SDS011;11438;52.044;8.716;2023-07-24T02:26:20;4.20;;;1.38;;
22543;SDS011;11438;52.044;8.716;2023-07-24T02:28:46;1.88;;;1.38;;
22543;SDS011;11438;52.044;8.716;2023-07-24T02:31:11;1.70;;;1.30;;
22543;SDS011;11438;52.044;8.716;2023-07-24T02:33:38;1.73;;;1.27;;
22543;SDS011;11438;52.044;8.716;2023-07-24T02:36:03;2.85;;;1.50;;
22543;SDS011;11438;52.044;8.716;2023-07-24T02:38:29;3.50;;;1.60;;
22543;SDS011;11438;52.044;8.716;2023-07-24T02:40:54;3.90;;;1.52;;
22543;SDS011;11438;52.044;8.716;2023-07-24T02:43:20;2.78;;;1.60;;
22543;SDS011;11438;52.044;8.716;2023-07-24T02:45:45;2.83;;;1.50;;
22543;SDS011;11438;52.044;8.716;2023-07-24T02:48:11;1.38;;;1.23;;
22543;SDS011;11438;52.044;8.716;2023-07-24T02:50:37;1.85;;;1.27;;
22543;SDS011;11438;52.044;8.716;2023-07-24T02:53:02;3.08;;;1.38;;
22543;SDS011;11438;52.044;8.716;2023-07-24T02:55:28;2.15;;;1.27;;
22543;SDS011;11438;52.044;8.716;2023-07-24T02:57:53;3.22;;;1.50;;
22543;SDS011;11438;52.044;8.716;2023-07-24T03:00:19;1.73;;;1.13;;
22543;SDS011;11438;52.044;8.716;2023-07-24T03:02:44;3.83;;;1.23;;
22543;SDS011;11438;52.044;8.716;2023-07-24T03:05:10;6.63;;;1.50;;
22543;SDS011;11438;52.044;8.716;2023-07-24T03:07:35;4.05;;;1.42;;
22543;SDS011;11438;52.044;8.716;2023-07-24T03:10:01;3.30;;;1.60;;
22543;SDS011;11438;52.044;8.716;2023-07-24T03:12:27;5.43;;;1.60;;
22543;SDS011;11438;52.044;8.716;2023-07-24T03:14:53;4.63;;;1.52;;
22543;SDS011;11438;52.044;8.716;2023-07-24T03:17:19;3.63;;;1.83;;
22543;SDS011;11438;52.044;8.716;2023-07-24T03:19:44;3.05;;;1.70;;
22543;SDS011;11438;52.044;8.716;2023-07-24T03:22:10;3.08;;;1.50;;
22543;SDS011;11438;52.044;8.716;2023-07-24T03:24:35;4.82;;;1.60;;
22543;SDS011;11438;52.044;8.716;2023-07-24T03:27:01;2.58;;;1.45;;
22543;SDS011;11438;52.044;8.716;2023-07-24T03:29:26;2.65;;;1.50;;
22543;SDS011;11438;52.044;8.716;2023-07-24T03:31:52;2.63;;;1.45;;
22543;SDS011;11438;52.044;8.716;2023-07-24T03:34:18;2.97;;;1.40;;
22543;SDS011;11438;52.044;8.716;2023-07-24T03:36:44;3.65;;;1.70;;
22543;SDS011;11438;52.044;8.716;2023-07-24T03:39:09;3.33;;;1.40;;
22543;SDS011;11438;52.044;8.716;2023-07-24T03:41:36;2.13;;;1.52;;
22543;SDS011;11438;52.044;8.716;2023-07-24T03:44:02;2.30;;;1.45;;
22543;SDS011;11438;52.044;8.716;2023-07-24T03:46:27;4.05;;;1.60;;
22543;SDS011;11438;52.044;8.716;2023-07-24T03:48:53;1.83;;;1.45;;
22543;SDS011;11438;52.044;8.716;2023-07-24T03:51:18;2.00;;;1.45;;
22543;SDS011;11438;52.044;8.716;2023-07-24T03:53:44;4.75;;;1.67;;
22543;SDS011;11438;52.044;8.716;2023-07-24T03:56:09;2.53;;;1.58;;
22543;SDS011;11438;52.044;8.716;2023-07-24T03:58:35;3.83;;;1.27;;
22543;SDS011;11438;52.044;8.716;2023-07-24T04:01:00;2.78;;;1.45;;
22543;SDS011;11438;52.044;8.716;2023-07-24T04:03:26;3.13;;;1.38;;
22543;SDS011;11438;52.044;8.716;2023-07-24T04:05:51;4.38;;;1.50;;
22543;SDS011;11438;52.044;8.716;2023-07-24T04:08:17;4.10;;;1.40;;
22543;SDS011;11438;52.044;8.716;2023-07-24T04:10:42;4.40;;;1.30;;
22543;SDS011;11438;52.044;8.716;2023-07-24T04:13:08;6.07;;;1.50;;
22543;SDS011;11438;52.044;8.716;2023-07-24T04:15:33;3.25;;;1.60;;
22543;SDS011;11438;52.044;8.716;2023-07-24T04:17:59;2.47;;;1.50;;
22543;SDS011;11438;52.044;8.716;2023-07-24T04:20:24;2.78;;;1.58;;
22543;SDS011;11438;52.044;8.716;2023-07-24T04:22:50;2.80;;;1.58;;
22543;SDS011;11438;52.044;8.716;2023-07-24T04:25:15;2.30;;;1.50;;
22543;SDS011;11438;52.044;8.716;2023-07-24T04:27:41;2.22;;;1.48;;
22543;SDS011;11438;52.044;8.716;2023-07-24T04:30:07;2.13;;;1.63;;
22543;SDS011;11438;52.044;8.716;2023-07-24T04:32:32;3.33;;;1.52;;
22543;SDS011;11438;52.044;8.716;2023-07-24T04:34:58;1.88;;;1.58;;
22543;SDS011;11438;52.044;8.716;2023-07-24T04:37:23;2.03;;;1.38;;
22543;SDS011;11438;52.044;8.716;2023-07-24T04:39:49;6.10;;;1.67;;
22543;SDS011;11438;52.044;8.716;2023-07-24T04:42:15;2.30;;;1.45;;
22543;SDS011;11438;52.044;8.716;2023-07-24T04:44:40;3.25;;;1.58;;
22543;SDS011;11438;52.044;8.716;2023-07-24T04:47:05;2.47;;;1.25;;
22543;SDS011;11438;52.044;8.716;2023-07-24T04:49:31;2.13;;;1.42;;
22543;SDS011;11438;52.044;8.716;2023-07-24T04:51:58;2.42;;;1.50;;
22543;SDS011;11438;52.044;8.716;2023-07-24T04:54:24;1.85;;;1.40;;
22543;SDS011;11438;52.044;8.716;2023-07-24T04:56:49;2.70;;;1.70;;
22543;SDS011;11438;52.044;8.716;2023-07-24T04:59:15;2.60;;;1.65;;
22543;SDS011;11438;52.044;8.716;2023-07-24T05:01:40;2.90;;;1.45;;
22543;SDS011;11438;52.044;8.716;2023-07-24T05:04:06;3.20;;;2.00;;
22543;SDS011;11438;52.044;8.716;2023-07-24T05:06:31;2.85;;;1.52;;
22543;SDS011;11438;52.044;8.716;2023-07-24T05:08:57;2.33;;;1.63;;
22543;SDS011;11438;52.044;8.716;2023-07-24T05:11:22;2.88;;;1.63;;
22543;SDS011;11438;52.044;8.716;2023-07-24T05:13:48;3.40;;;1.83;;
22543;SDS011;11438;52.044;8.716;2023-07-24T05:16:13;3.45;;;1.80;;
22543;SDS011;11438;52.044;8.716;2023-07-24T05:18:39;2.88;;;1.63;;
22543;SDS011;11438;52.044;8.716;2023-07-24T05:21:04;2.85;;;1.73;;
22543;SDS011;11438;52.044;8.716;2023-07-24T05:23:30;2.85;;;1.88;;
22543;SDS011;11438;52.044;8.716;2023-07-24T05:25:59;3.28;;;1.90;;
22543;SDS011;11438;52.044;8.716;2023-07-24T05:28:29;3.08;;;1.65;;
22543;SDS011;11438;52.044;8.716;2023-07-24T05:30:56;4.20;;;2.10;;
22543;SDS011;11438;52.044;8.716;2023-07-24T05:33:28;3.15;;;1.95;;
22543;SDS011;11438;52.044;8.716;2023-07-24T05:35:58;2.72;;;1.80;;
22543;SDS011;11438;52.044;8.716;2023-07-24T05:38:24;3.40;;;2.05;;
22543;SDS011;11438;52.044;8.716;2023-07-24T05:40:56;3.95;;;1.98;;
22543;SDS011;11438;52.044;8.716;2023-07-24T05:43:26;2.78;;;2.30;;
22543;SDS011;11438;52.044;8.716;2023-07-24T05:45:52;4.18;;;2.10;;
22543;SDS011;11438;52.044;8.716;2023-07-24T05:48:18;3.38;;;2.20;;
22543;SDS011;11438;52.044;8.716;2023-07-24T05:50:44;4.60;;;2.00;;
22543;SDS011;11438;52.044;8.716;2023-07-24T05:53:10;2.65;;;1.95;;
22543;SDS011;11438;52.044;8.716;2023-07-24T05:55:35;4.07;;;1.80;;
22543;SDS011;11438;52.044;8.716;2023-07-24T05:58:01;2.58;;;2.00;;
22543;SDS011;11438;52.044;8.716;2023-07-24T06:00:26;3.28;;;2.20;;
22543;SDS011;11438;52.044;8.716;2023-07-24T06:02:52;5.00;;;2.10;;
22543;SDS011;11438;52.044;8.716;2023-07-24T06:05:19;3.83;;;2.33;;
22543;SDS011;11438;52.044;8.716;2023-07-24T06:07:45;4.43;;;2.33;;
22543;SDS011;11438;52.044;8.716;2023-07-24T06:10:14;2.70;;;2.10;;
22543;SDS011;11438;52.044;8.716;2023-07-24T06:12:39;3.20;;;1.90;;
22543;SDS011;11438;52.044;8.716;2023-07-24T06:15:05;4.93;;;2.20;;
22543;SDS011;11438;52.044;8.716;2023-07-24T06:17:31;5.22;;;2.28;;
22543;SDS011;11438;52.044;8.716;2023-07-24T06:19:57;2.67;;;1.98;;
22543;SDS011;11438;52.044;8.716;2023-07-24T06:22:22;3.38;;;2.20;;
22543;SDS011;11438;52.044;8.716;2023-07-24T06:24:48;3.35;;;2.00;;
22543;SDS011;11438;52.044;8.716;2023-07-24T06:27:14;3.95;;;2.17;;
22543;SDS011;11438;52.044;8.716;2023-07-24T06:29:40;3.75;;;2.17;;
22543;SDS011;11438;52.044;8.716;2023-07-24T06:32:05;4.55;;;2.30;;
22543;SDS011;11438;52.044;8.716;2023-07-24T06:34:32;3.05;;;2.20;;
22543;SDS011;11438;52.044;8.716;2023-07-24T06:36:57;3.60;;;2.22;;
22543;SDS011;11438;52.044;8.716;2023-07-24T06:39:23;3.22;;;2.35;;
22543;SDS011;11438;52.044;8.716;2023-07-24T06:41:50;4.10;;;2.33;;
22543;SDS011;11438;52.044;8.716;2023-07-24T06:44:20;3.35;;;2.30;;
22543;SDS011;11438;52.044;8.716;2023-07-24T06:46:46;3.25;;;1.98;;
22543;SDS011;11438;52.044;8.716;2023-07-24T06:49:12;4.65;;;2.22;;
22543;SDS011;11438;52.044;8.716;2023-07-24T06:51:38;3.30;;;2.47;;
22543;SDS011;11438;52.044;8.716;2023-07-24T06:54:03;2.80;;;2.00;;
22543;SDS011;11438;52.044;8.716;2023-07-24T06:56:30;4.43;;;2.30;;
22543;SDS011;11438;52.044;8.716;2023-07-24T06:58:55;4.00;;;2.53;;
22543;SDS011;11438;52.044;8.716;2023-07-24T07:01:21;5.57;;;3.00;;
22543;SDS011;11438;52.044;8.716;2023-07-24T07:03:46;4.80;;;2.88;;
22543;SDS011;11438;52.044;8.716;2023-07-24T07:06:12;3.83;;;2.67;;
22543;SDS011;11438;52.044;8.716;2023-07-24T07:08:37;3.80;;;2.33;;
22543;SDS011;11438;52.044;8.716;2023-07-24T07:11:03;4.50;;;2.50;;
22543;SDS011;11438;52.044;8.716;2023-07-24T07:13:29;4.60;;;2.65;;
22543;SDS011;11438;52.044;8.716;2023-07-24T07:15:55;4.80;;;2.35;;
22543;SDS011;11438;52.044;8.716;2023-07-24T07:18:20;3.53;;;2.60;;
22543;SDS011;11438;52.044;8.716;2023-07-24T07:20:47;4.63;;;2.53;;
22543;SDS011;11438;52.044;8.716;2023-07-24T07:23:13;3.78;;;2.17;;
22543;SDS011;11438;52.044;8.716;2023-07-24T07:25:39;4.45;;;2.05;;
22543;SDS011;11438;52.044;8.716;2023-07-24T07:28:05;3.80;;;2.40;;
22543;SDS011;11438;52.044;8.716;2023-07-24T07:30:30;3.38;;;2.20;;
22543;SDS011;11438;52.044;8.716;2023-07-24T07:32:56;2.83;;;1.95;;
22543;SDS011;11438;52.044;8.716;2023-07-24T07:35:21;2.50;;;2.15;;
22543;SDS011;11438;52.044;8.716;2023-07-24T07:37:47;3.80;;;2.28;;
22543;SDS011;11438;52.044;8.716;2023-07-24T07:40:12;4.70;;;2.50;;
22543;SDS011;11438;52.044;8.716;2023-07-24T07:42:38;3.45;;;2.45;;
22543;SDS011;11438;52.044;8.716;2023-07-24T07:45:04;3.22;;;2.35;;
22543;SDS011;11438;52.044;8.716;2023-07-24T07:47:30;4.85;;;2.20;;
22543;SDS011;11438;52.044;8.716;2023-07-24T07:49:55;3.85;;;2.70;;
22543;SDS011;11438;52.044;8.716;2023-07-24T07:52:21;4.28;;;2.35;;
22543;SDS011;11438;52.044;8.716;2023-07-24T07:54:47;3.55;;;2.78;;
22543;SDS011;11438;52.044;8.716;2023-07-24T07:57:13;3.08;;;2.60;;
22543;SDS011;11438;52.044;8.716;2023-07-24T07:59:39;3.90;;;2.85;;
22543;SDS011;11438;52.044;8.716;2023-07-24T08:02:04;3.58;;;2.65;;
22543;SDS011;11438;52.044;8.716;2023-07-24T08:04:31;4.53;;;2.53;;
22543;SDS011;11438;52.044;8.716;2023-07-24T08:06:56;5.20;;;2.80;;
22543;SDS011;11438;52.044;8.716;2023-07-24T08:09:22;4.75;;;3.00;;
22543;SDS011;11438;52.044;8.716;2023-07-24T08:11:49;4.32;;;3.10;;
22543;SDS011;11438;52.044;8.716;2023-07-24T08:14:14;3.92;;;3.17;;
22543;SDS011;11438;52.044;8.716;2023-07-24T08:16:40;4.35;;;2.60;;
22543;SDS011;11438;52.044;8.716;2023-07-24T08:19:05;4.82;;;3.00;;
22543;SDS011;11438;52.044;8.716;2023-07-24T08:21:31;4.97;;;2.65;;
22543;SDS011;11438;52.044;8.716;2023-07-24T08:23:56;3.63;;;2.75;;
22543;SDS011;11438;52.044;8.716;2023-07-24T08:26:23;3.28;;;2.70;;
22543;SDS011;11438;52.044;8.716;2023-07-24T08:28:50;3.90;;;2.88;;
22543;SDS011;11438;52.044;8.716;2023-07-24T08:31:17;4.00;;;2.72;;
22543;SDS011;11438;52.044;8.716;2023-07-24T08:33:42;6.07;;;2.67;;
22543;SDS011;11438;52.044;8.716;2023-07-24T08:36:08;3.25;;;2.58;;
22543;SDS011;11438;52.044;8.716;2023-07-24T08:38:34;4.13;;;2.58;;
22543;SDS011;11438;52.044;8.716;2023-07-24T08:41:04;4.72;;;3.15;;
22543;SDS011;11438;52.044;8.716;2023-07-24T08:43:30;4.15;;;2.97;;
22543;SDS011;11438;52.044;8.716;2023-07-24T08:45:57;4.13;;;3.00;;
22543;SDS011;11438;52.044;8.716;2023-07-24T08:48:29;6.85;;;2.78;;
22543;SDS011;11438;52.044;8.716;2023-07-24T08:50:56;3.45;;;2.83;;
22543;SDS011;11438;52.044;8.716;2023-07-24T08:53:23;3.85;;;2.50;;
22543;SDS011;11438;52.044;8.716;2023-07-24T08:55:49;4.20;;;3.28;;
22543;SDS011;11438;52.044;8.716;2023-07-24T08:58:17;3.38;;;2.65;;
22543;SDS011;11438;52.044;8.716;2023-07-24T09:00:42;3.63;;;2.75;;
22543;SDS011;11438;52.044;8.716;2023-07-24T09:03:08;3.65;;;2.65;;
22543;SDS011;11438;52.044;8.716;2023-07-24T09:05:34;5.35;;;2.80;;
22543;SDS011;11438;52.044;8.716;2023-07-24T09:07:59;3.10;;;2.60;;
22543;SDS011;11438;52.044;8.716;2023-07-24T09:10:25;4.13;;;2.70;;
22543;SDS011;11438;52.044;8.716;2023-07-24T09:12:51;4.45;;;2.67;;
22543;SDS011;11438;52.044;8.716;2023-07-24T09:15:17;4.15;;;3.10;;
22543;SDS011;11438;52.044;8.716;2023-07-24T09:17:49;4.18;;;2.83;;
22543;SDS011;11438;52.044;8.716;2023-07-24T09:20:15;3.78;;;2.92;;
22543;SDS011;11438;52.044;8.716;2023-07-24T09:22:51;3.78;;;2.90;;
22543;SDS011;11438;52.044;8.716;2023-07-24T09:25:18;3.67;;;2.90;;
22543;SDS011;11438;52.044;8.716;2023-07-24T09:27:55;3.83;;;2.70;;
22543;SDS011;11438;52.044;8.716;2023-07-24T09:30:22;4.18;;;3.00;;
22543;SDS011;11438;52.044;8.716;2023-07-24T09:32:52;5.45;;;3.30;;
22543;SDS011;11438;52.044;8.716;2023-07-24T09:35:19;4.05;;;3.00;;
22543;SDS011;11438;52.044;8.716;2023-07-24T09:37:45;4.63;;;3.10;;
22543;SDS011;11438;52.044;8.716;2023-07-24T09:40:12;4.10;;;2.95;;
22543;SDS011;11438;52.044;8.716;2023-07-24T09:42:39;4.63;;;3.15;;
22543;SDS011;11438;52.044;8.716;2023-07-24T09:45:06;4.97;;;3.38;;
22543;SDS011;11438;52.044;8.716;2023-07-24T09:47:33;6.45;;;3.67;;
22543;SDS011;11438;52.044;8.716;2023-07-24T09:49:59;5.05;;;3.97;;
22543;SDS011;11438;52.044;8.716;2023-07-24T09:52:27;4.55;;;3.72;;
22543;SDS011;11438;52.044;8.716;2023-07-24T09:57:37;4.35;;;3.95;;
22543;SDS011;11438;52.044;8.716;2023-07-24T10:00:04;6.25;;;4.45;;
22543;SDS011;11438;52.044;8.716;2023-07-24T10:02:32;5.25;;;4.15;;
22543;SDS011;11438;52.044;8.716;2023-07-24T10:04:59;5.32;;;4.00;;
22543;SDS011;11438;52.044;8.716;2023-07-24T10:07:25;5.05;;;4.20;;
22543;SDS011;11438;52.044;8.716;2023-07-24T10:09:51;4.90;;;3.70;;
22543;SDS011;11438;52.044;8.716;2023-07-24T10:12:18;6.32;;;4.20;;
22543;SDS011;11438;52.044;8.716;2023-07-24T10:14:45;6.25;;;4.50;;
22543;SDS011;11438;52.044;8.716;2023-07-24T10:17:11;8.55;;;3.90;;
22543;SDS011;11438;52.044;8.716;2023-07-24T10:19:41;5.68;;;4.53;;
22543;SDS011;11438;52.044;8.716;2023-07-24T10:22:16;5.22;;;4.05;;
22543;SDS011;11438;52.044;8.716;2023-07-24T10:24:44;6.03;;;4.38;;
22543;SDS011;11438;52.044;8.716;2023-07-24T10:27:11;5.57;;;4.43;;
22543;SDS011;11438;52.044;8.716;2023-07-24T10:29:37;5.45;;;3.92;;
22543;SDS011;11438;52.044;8.716;2023-07-24T10:32:02;5.03;;;3.58;;
22543;SDS011;11438;52.044;8.716;2023-07-24T10:34:38;4.15;;;3.55;;
22543;SDS011;11438;52.044;8.716;2023-07-24T10:37:06;4.32;;;3.55;;
22543;SDS011;11438;52.044;8.716;2023-07-24T10:39:40;4.18;;;3.78;;
22543;SDS011;11438;52.044;8.716;2023-07-24T10:42:07;5.70;;;4.30;;
22543;SDS011;11438;52.044;8.716;2023-07-24T10:44:36;3.88;;;3.47;;
22543;SDS011;11438;52.044;8.716;2023-07-24T10:47:02;3.78;;;3.15;;
22543;SDS011;11438;52.044;8.716;2023-07-24T10:49:28;4.75;;;3.53;;
22543;SDS011;11438;52.044;8.716;2023-07-24T10:51:57;4.30;;;3.90;;
22543;SDS011;11438;52.044;8.716;2023-07-24T10:54:23;5.47;;;3.88;;
22543;SDS011;11438;52.044;8.716;2023-07-24T10:56:49;3.83;;;3.42;;
22543;SDS011;11438;52.044;8.716;2023-07-24T10:59:15;5.97;;;3.50;;
22543;SDS011;11438;52.044;8.716;2023-07-24T11:01:40;3.90;;;3.45;;
22543;SDS011;11438;52.044;8.716;2023-07-24T11:04:06;4.35;;;3.70;;
22543;SDS011;11438;52.044;8.716;2023-07-24T11:06:33;4.57;;;3.42;;
22543;SDS011;11438;52.044;8.716;2023-07-24T11:08:59;3.65;;;3.15;;
22543;SDS011;11438;52.044;8.716;2023-07-24T11:11:34;3.80;;;3.40;;
22543;SDS011;11438;52.044;8.716;2023-07-24T11:14:01;3.60;;;3.20;;
22543;SDS011;11438;52.044;8.716;2023-07-24T11:16:27;3.85;;;2.92;;
22543;SDS011;11438;52.044;8.716;2023-07-24T11:18:55;4.20;;;3.28;;
22543;SDS011;11438;52.044;8.716;2023-07-24T11:21:22;4.80;;;3.50;;
22543;SDS011;11438;52.044;8.716;2023-07-24T11:23:49;5.25;;;3.83;;
22543;SDS011;11438;52.044;8.716;2023-07-24T11:26:20;4.22;;;2.95;;
22543;SDS011;11438;52.044;8.716;2023-07-24T11:28:47;3.92;;;2.90;;
22543;SDS011;11438;52.044;8.716;2023-07-24T11:31:13;3.47;;;3.08;;
22543;SDS011;11438;52.044;8.716;2023-07-24T11:33:40;3.22;;;2.92;;
22543;SDS011;11438;52.044;8.716;2023-07-24T11:36:07;3.63;;;2.80;;
22543;SDS011;11438;52.044;8.716;2023-07-24T11:38:34;4.15;;;2.95;;
22543;SDS011;11438;52.044;8.716;2023-07-24T11:41:01;3.15;;;2.85;;
22543;SDS011;11438;52.044;8.716;2023-07-24T11:43:27;4.18;;;3.20;;
22543;SDS011;11438;52.044;8.716;2023-07-24T11:45:53;3.78;;;2.65;;
22543;SDS011;11438;52.044;8.716;2023-07-24T11:48:19;2.80;;;2.38;;
22543;SDS011;11438;52.044;8.716;2023-07-24T11:50:46;2.78;;;2.40;;
22543;SDS011;11438;52.044;8.716;2023-07-24T11:53:29;2.42;;;2.20;;
22543;SDS011;11438;52.044;8.716;2023-07-24T11:55:57;2.38;;;2.05;;
22543;SDS011;11438;52.044;8.716;2023-07-24T11:58:27;2.40;;;2.13;;
22543;SDS011;11438;52.044;8.716;2023-07-24T12:00:53;2.63;;;2.20;;
22543;SDS011;11438;52.044;8.716;2023-07-24T12:03:20;2.90;;;2.22;;
22543;SDS011;11438;52.044;8.716;2023-07-24T12:05:47;3.40;;;2.42;;
22543;SDS011;11438;52.044;8.716;2023-07-24T12:08:13;3.83;;;2.50;;
22543;SDS011;11438;52.044;8.716;2023-07-24T12:10:42;2.28;;;2.08;;
22543;SDS011;11438;52.044;8.716;2023-07-24T12:13:08;4.85;;;2.60;;
22543;SDS011;11438;52.044;8.716;2023-07-24T12:15:34;3.67;;;2.80;;
22543;SDS011;11438;52.044;8.716;2023-07-24T12:18:00;2.63;;;2.35;;
22543;SDS011;11438;52.044;8.716;2023-07-24T12:20:27;3.70;;;2.65;;
22543;SDS011;11438;52.044;8.716;2023-07-24T12:22:52;2.78;;;2.47;;
22543;SDS011;11438;52.044;8.716;2023-07-24T12:25:19;4.07;;;2.35;;
22543;SDS011;11438;52.044;8.716;2023-07-24T12:27:45;3.08;;;2.60;;
22543;SDS011;11438;52.044;8.716;2023-07-24T12:30:11;3.85;;;2.65;;
22543;SDS011;11438;52.044;8.716;2023-07-24T12:32:37;2.65;;;2.38;;
22543;SDS011;11438;52.044;8.716;2023-07-24T12:35:03;2.85;;;2.25;;
22543;SDS011;11438;52.044;8.716;2023-07-24T12:37:29;4.43;;;2.60;;
22543;SDS011;11438;52.044;8.716;2023-07-24T12:39:55;3.83;;;2.35;;
22543;SDS011;11438;52.044;8.716;2023-07-24T12:42:20;3.28;;;2.45;;
22543;SDS011;11438;52.044;8.716;2023-07-24T12:44:46;2.97;;;2.50;;
22543;SDS011;11438;52.044;8.716;2023-07-24T12:47:11;2.97;;;2.13;;
22543;SDS011;11438;52.044;8.716;2023-07-24T12:49:37;2.58;;;2.35;;
22543;SDS011;11438;52.044;8.716;2023-07-24T12:52:03;4.18;;;2.20;;
22543;SDS011;11438;52.044;8.716;2023-07-24T12:54:29;3.13;;;2.30;;
22543;SDS011;11438;52.044;8.716;2023-07-24T12:56:56;2.80;;;2.38;;
22543;SDS011;11438;52.044;8.716;2023-07-24T12:59:21;2.70;;;2.20;;
22543;SDS011;11438;52.044;8.716;2023-07-24T13:01:47;3.28;;;2.40;;
22543;SDS011;11438;52.044;8.716;2023-07-24T13:04:12;3.42;;;2.42;;
22543;SDS011;11438;52.044;8.716;2023-07-24T13:06:38;3.20;;;2.30;;
22543;SDS011;11438;52.044;8.716;2023-07-24T13:09:05;3.15;;;2.28;;
22543;SDS011;11438;52.044;8.716;2023-07-24T13:11:32;3.03;;;2.42;;
22543;SDS011;11438;52.044;8.716;2023-07-24T13:13:58;3.45;;;2.05;;
22543;SDS011;11438;52.044;8.716;2023-07-24T13:16:23;3.47;;;1.80;;
22543;SDS011;11438;52.044;8.716;2023-07-24T13:18:49;2.90;;;1.35;;
22543;SDS011;11438;52.044;8.716;2023-07-24T13:21:14;2.20;;;1.40;;
22543;SDS011;11438;52.044;8.716;2023-07-24T13:23:41;2.25;;;1.70;;
22543;SDS011;11438;52.044;8.716;2023-07-24T13:26:06;3.83;;;1.92;;
22543;SDS011;11438;52.044;8.716;2023-07-24T13:28:33;5.75;;;2.65;;
22543;SDS011;11438;52.044;8.716;2023-07-24T13:30:59;7.38;;;1.60;;
22543;SDS011;11438;52.044;8.716;2023-07-24T13:33:35;2.05;;;1.67;;
22543;SDS011;11438;52.044;8.716;2023-07-24T13:36:00;1.83;;;1.38;;
22543;SDS011;11438;52.044;8.716;2023-07-24T13:38:26;2.20;;;1.83;;
22543;SDS011;11438;52.044;8.716;2023-07-24T13:40:51;3.38;;;1.70;;
22543;SDS011;11438;52.044;8.716;2023-07-24T13:43:17;3.67;;;1.90;;
22543;SDS011;11438;52.044;8.716;2023-07-24T13:45:43;3.42;;;1.67;;
22543;SDS011;11438;52.044;8.716;2023-07-24T13:48:09;6.28;;;2.05;;
22543;SDS011;11438;52.044;8.716;2023-07-24T13:50:34;2.83;;;1.95;;
22543;SDS011;11438;52.044;8.716;2023-07-24T13:53:00;2.22;;;1.77;;
22543;SDS011;11438;52.044;8.716;2023-07-24T13:55:25;2.25;;;1.55;;
22543;SDS011;11438;52.044;8.716;2023-07-24T13:57:51;2.42;;;1.75;;
22543;SDS011;11438;52.044;8.716;2023-07-24T14:00:16;2.40;;;1.80;;
22543;SDS011;11438;52.044;8.716;2023-07-24T14:02:42;1.70;;;1.50;;
22543;SDS011;11438;52.044;8.716;2023-07-24T14:05:08;1.85;;;1.30;;
22543;SDS011;11438;52.044;8.716;2023-07-24T14:07:33;3.55;;;1.50;;
22543;SDS011;11438;52.044;8.716;2023-07-24T14:09:59;1.75;;;1.27;;
22543;SDS011;11438;52.044;8.716;2023-07-24T14:12:24;2.03;;;1.42;;
22543;SDS011;11438;52.044;8.716;2023-07-24T14:14:50;2.15;;;1.40;;
22543;SDS011;11438;52.044;8.716;2023-07-24T14:17:15;4.50;;;1.35;;
22543;SDS011;11438;52.044;8.716;2023-07-24T14:19:41;2.15;;;1.27;;
22543;SDS011;11438;52.044;8.716;2023-07-24T14:22:06;3.25;;;1.60;;
22543;SDS011;11438;52.044;8.716;2023-07-24T14:24:32;1.33;;;1.17;;
22543;SDS011;11438;52.044;8.716;2023-07-24T14:26:57;1.50;;;1.15;;
22543;SDS011;11438;52.044;8.716;2023-07-24T14:29:23;3.03;;;1.20;;
22543;SDS011;11438;52.044;8.716;2023-07-24T14:31:48;1.50;;;1.23;;
22543;SDS011;11438;52.044;8.716;2023-07-24T14:34:14;2.15;;;1.30;;
22543;SDS011;11438;52.044;8.716;2023-07-24T14:36:39;1.52;;;1.20;;
22543;SDS011;11438;52.044;8.716;2023-07-24T14:39:05;1.92;;;1.20;;
22543;SDS011;11438;52.044;8.716;2023-07-24T14:41:31;1.65;;;1.15;;
22543;SDS011;11438;52.044;8.716;2023-07-24T14:43:56;2.00;;;1.20;;
22543;SDS011;11438;52.044;8.716;2023-07-24T14:46:22;1.77;;;1.10;;
22543;SDS011;11438;52.044;8.716;2023-07-24T14:48:49;1.98;;;1.10;;
22543;SDS011;11438;52.044;8.716;2023-07-24T14:51:14;2.13;;;1.38;;